createdAt,value
2023-01-22T00:01:37.849Z,14.27
2023-01-22T00:04:21.007Z,13.80
2023-01-22T00:07:04.315Z,13.07
2023-01-22T00:09:41.805Z,14.43
2023-01-22T00:12:19.799Z,13.55
2023-01-22T00:14:57.865Z,13.80
2023-01-22T00:17:44.714Z,12.68
2023-01-22T00:20:28.198Z,13.15
2023-01-22T00:23:13.015Z,14.48
2023-01-22T00:25:56.779Z,13.52
2023-01-22T00:28:34.530Z,14.25
2023-01-22T00:31:16.268Z,14.25
2023-01-22T00:34:01.320Z,13.07
2023-01-22T00:36:47.282Z,14.38
2023-01-22T00:39:27.846Z,19.35
2023-01-22T00:42:13.684Z,18.38
2023-01-22T00:45:00.089Z,16.95
2023-01-22T00:47:40.617Z,16.13
2023-01-22T00:50:17.046Z,14.20
2023-01-22T00:52:53.411Z,14.35
2023-01-22T00:55:30.812Z,14.02
2023-01-22T00:58:04.333Z,13.80
2023-01-22T01:00:49.376Z,13.13
2023-01-22T01:03:30.930Z,12.70
2023-01-22T01:06:20.086Z,12.85
2023-01-22T01:08:56.354Z,12.48
2023-01-22T01:11:37.178Z,13.63
2023-01-22T01:14:19.384Z,15.02
2023-01-22T01:16:59.016Z,14.40
2023-01-22T01:19:34.319Z,15.40
2023-01-22T01:22:13.826Z,14.10
2023-01-22T01:24:49.025Z,13.90
2023-01-22T01:27:24.941Z,14.48
2023-01-22T01:29:51.965Z,14.48
2023-01-22T01:32:25.354Z,14.00
2023-01-22T01:37:40.683Z,13.38
2023-01-22T01:40:18.960Z,12.38
2023-01-22T01:43:00.446Z,12.93
2023-01-22T01:45:41.969Z,13.35
2023-01-22T01:48:32.103Z,12.68
2023-01-22T01:51:37.846Z,13.18
2023-01-22T01:54:23.163Z,12.70
2023-01-22T01:57:09.581Z,12.77
2023-01-22T01:59:50.329Z,11.98
2023-01-22T02:02:35.911Z,13.35
2023-01-22T02:05:13.272Z,11.68
2023-01-22T02:08:07.750Z,12.65
2023-01-22T02:13:25.774Z,11.27
2023-01-22T02:16:08.114Z,13.73
2023-01-22T02:18:51.584Z,12.50
2023-01-22T02:21:47.538Z,15.48
2023-01-22T02:24:25.349Z,20.33
2023-01-22T02:27:00.038Z,18.77
2023-01-22T02:29:41.525Z,15.38
2023-01-22T02:32:26.287Z,10.85
2023-01-22T02:35:15.639Z,15.13
2023-01-22T02:37:54.759Z,16.50
2023-01-22T02:40:36.800Z,16.45
2023-01-22T02:43:23.582Z,20.98
2023-01-22T02:46:02.403Z,17.80
2023-01-22T02:48:45.319Z,23.02
2023-01-22T02:51:27.325Z,20.13
2023-01-22T02:54:10.879Z,17.80
2023-01-22T02:57:00.289Z,17.25
2023-01-22T02:59:43.487Z,14.32
2023-01-22T03:02:24.985Z,15.52
2023-01-22T03:05:07.202Z,16.35
2023-01-22T03:07:54.355Z,14.60
2023-01-22T03:10:33.207Z,14.77
2023-01-22T03:13:25.380Z,15.52
2023-01-22T03:16:23.075Z,14.60
2023-01-22T03:19:18.145Z,14.38
2023-01-22T03:22:10.863Z,14.27
2023-01-22T03:24:53.179Z,15.38
2023-01-22T03:27:56.177Z,16.52
2023-01-22T03:30:34.452Z,14.85
2023-01-22T03:33:12.367Z,14.68
2023-01-22T03:36:02.253Z,14.88
2023-01-22T03:38:47.089Z,16.08
2023-01-22T03:41:32.058Z,17.15
2023-01-22T03:44:15.564Z,17.13
2023-01-22T03:46:51.790Z,17.20
2023-01-22T03:49:24.017Z,15.93
2023-01-22T03:52:04.720Z,16.55
2023-01-22T03:54:42.306Z,16.42
2023-01-22T03:57:22.991Z,16.48
2023-01-22T04:00:16.249Z,17.00
2023-01-22T04:02:56.044Z,16.02
2023-01-22T04:05:47.233Z,15.98
2023-01-22T04:08:32.085Z,16.13
2023-01-22T04:11:19.271Z,15.82
2023-01-22T04:14:03.673Z,16.52
2023-01-22T04:16:47.105Z,15.23
2023-01-22T04:19:48.290Z,15.48
2023-01-22T04:23:02.305Z,16.27
2023-01-22T04:25:43.755Z,16.48
2023-01-22T04:28:21.427Z,16.00
2023-01-22T04:31:09.394Z,15.38
2023-01-22T04:34:12.349Z,15.55
2023-01-22T04:36:55.501Z,15.02
2023-01-22T04:39:42.424Z,15.60
2023-01-22T04:42:20.718Z,15.73
2023-01-22T04:44:58.452Z,13.27
2023-01-22T04:47:38.364Z,14.57
2023-01-22T04:50:42.266Z,14.73
2023-01-22T04:53:20.290Z,15.37
2023-01-22T04:56:07.114Z,14.95
2023-01-22T04:58:58.440Z,13.85
2023-01-22T05:01:42.235Z,14.88
2023-01-22T05:04:21.943Z,15.93
2023-01-22T05:07:13.682Z,14.50
2023-01-22T05:09:51.783Z,15.65
2023-01-22T05:12:28.029Z,13.90
2023-01-22T05:15:15.064Z,14.00
2023-01-22T05:18:14.328Z,14.30
2023-01-22T05:21:06.054Z,14.35
2023-01-22T05:23:44.881Z,15.18
2023-01-22T05:26:21.322Z,16.23
2023-01-22T05:29:19.451Z,14.43
2023-01-22T05:32:23.249Z,16.02
2023-01-22T05:35:06.592Z,17.90
2023-01-22T05:37:53.262Z,17.27
2023-01-22T05:40:39.237Z,15.48
2023-01-22T05:43:20.750Z,14.73
2023-01-22T05:46:08.965Z,15.55
2023-01-22T05:49:04.802Z,15.50
2023-01-22T05:51:50.690Z,13.43
2023-01-22T05:54:29.075Z,13.55
2023-01-22T05:57:13.481Z,14.48
2023-01-22T05:59:51.883Z,13.38
2023-01-22T06:02:38.274Z,13.95
2023-01-22T06:05:30.092Z,12.38
2023-01-22T06:08:17.091Z,12.57
2023-01-22T06:11:19.380Z,12.95
2023-01-22T06:14:00.346Z,11.45
2023-01-22T06:16:41.488Z,11.95
2023-01-22T06:19:43.253Z,11.88
2023-01-22T06:22:21.439Z,12.13
2023-01-22T06:25:04.651Z,13.05
2023-01-22T06:28:03.767Z,13.07
2023-01-22T06:30:42.463Z,11.85
2023-01-22T06:33:24.258Z,10.75
2023-01-22T06:36:07.123Z,11.65
2023-01-22T06:38:46.492Z,12.30
2023-01-22T06:41:35.416Z,14.10
2023-01-22T06:44:21.983Z,13.70
2023-01-22T06:47:01.502Z,12.60
2023-01-22T06:49:45.208Z,12.88
2023-01-22T06:52:29.738Z,14.27
2023-01-22T06:55:11.117Z,12.88
2023-01-22T07:00:45.992Z,14.18
2023-01-22T07:03:27.077Z,15.57
2023-01-22T07:06:10.281Z,14.35
2023-01-22T07:08:46.917Z,15.18
2023-01-22T07:11:37.564Z,14.27
2023-01-22T07:14:28.909Z,13.60
2023-01-22T07:17:22.926Z,12.50
2023-01-22T07:20:06.895Z,13.32
2023-01-22T07:22:44.947Z,14.23
2023-01-22T07:25:25.823Z,15.18
2023-01-22T07:28:13.661Z,16.38
2023-01-22T07:30:54.238Z,15.82
2023-01-22T07:33:34.746Z,15.83
2023-01-22T07:36:15.158Z,15.30
2023-01-22T07:38:59.835Z,19.55
2023-01-22T07:41:46.124Z,19.50
2023-01-22T07:44:26.699Z,21.60
2023-01-22T07:47:07.088Z,21.25
2023-01-22T07:49:50.647Z,18.25
2023-01-22T07:52:32.313Z,18.33
2023-01-22T07:57:47.269Z,15.23
2023-01-22T08:00:32.994Z,16.50
2023-01-22T08:03:22.058Z,15.27
2023-01-22T08:06:02.779Z,15.88
2023-01-22T08:08:45.669Z,14.02
2023-01-22T08:11:29.815Z,14.63
2023-01-22T08:14:07.949Z,15.40
2023-01-22T08:16:46.338Z,14.40
2023-01-22T08:19:35.367Z,14.68
2023-01-22T08:22:16.315Z,16.15
2023-01-22T08:24:54.639Z,15.30
2023-01-22T08:27:37.593Z,13.43
2023-01-22T08:30:16.399Z,14.32
2023-01-22T08:33:03.020Z,13.32
2023-01-22T08:35:43.993Z,15.60
2023-01-22T08:38:24.265Z,14.02
2023-01-22T08:41:01.892Z,12.93
2023-01-22T08:43:59.737Z,17.55
2023-01-22T08:46:43.635Z,18.05
2023-01-22T08:52:05.538Z,14.80
2023-01-22T08:54:50.209Z,14.20
2023-01-22T08:57:36.079Z,19.30
2023-01-22T09:00:20.214Z,21.52
2023-01-22T09:03:09.070Z,16.17
2023-01-22T09:05:47.290Z,16.10
2023-01-22T09:08:23.685Z,16.10
2023-01-22T09:11:08.927Z,15.88
2023-01-22T09:13:44.047Z,15.82
2023-01-22T09:16:22.347Z,15.00
2023-01-22T09:19:00.974Z,16.23
2023-01-22T09:21:38.548Z,17.40
2023-01-22T09:24:17.260Z,16.30
2023-01-22T09:26:50.363Z,18.30
2023-01-22T09:29:25.618Z,18.60
2023-01-22T09:31:58.996Z,15.30
2023-01-22T09:34:34.417Z,19.50
2023-01-22T09:37:14.385Z,18.90
2023-01-22T09:39:53.372Z,15.80
2023-01-22T09:42:35.241Z,17.65
2023-01-22T09:45:14.682Z,16.33
2023-01-22T09:48:02.875Z,16.50
2023-01-22T09:50:40.482Z,15.10
2023-01-22T09:53:23.151Z,17.35
2023-01-22T09:56:10.308Z,15.40
2023-01-22T09:58:54.676Z,18.15
2023-01-22T10:01:30.375Z,15.95
2023-01-22T10:04:43.320Z,16.52
2023-01-22T10:07:42.777Z,15.60
2023-01-22T10:10:43.250Z,15.85
2023-01-22T10:13:37.821Z,14.60
2023-01-22T10:16:22.484Z,14.90
2023-01-22T10:19:16.524Z,14.63
2023-01-22T10:22:01.886Z,15.23
2023-01-22T10:24:52.348Z,16.00
2023-01-22T10:27:46.992Z,17.33
2023-01-22T10:30:35.897Z,15.75
2023-01-22T10:33:21.537Z,15.07
2023-01-22T10:36:08.139Z,15.43
2023-01-22T10:38:49.045Z,21.75
2023-01-22T10:41:34.512Z,15.65
2023-01-22T10:44:16.819Z,16.75
2023-01-22T10:46:57.851Z,16.67
2023-01-22T10:49:38.997Z,15.80
2023-01-22T10:52:39.021Z,14.65
2023-01-22T10:55:34.937Z,14.65
2023-01-22T10:58:21.511Z,15.63
2023-01-22T11:01:20.367Z,15.50
2023-01-22T11:04:04.347Z,17.65
2023-01-22T11:09:42.095Z,17.02
2023-01-22T11:12:26.214Z,18.58
2023-01-22T11:15:11.410Z,17.08
2023-01-22T11:17:54.800Z,16.70
2023-01-22T11:20:51.152Z,14.40
2023-01-22T11:23:44.140Z,18.63
2023-01-22T11:26:26.515Z,16.88
2023-01-22T11:29:04.987Z,18.27
2023-01-22T11:32:04.258Z,15.60
2023-01-22T11:34:56.522Z,16.65
2023-01-22T11:37:55.739Z,16.42
2023-01-22T11:40:34.546Z,18.35
2023-01-22T11:43:34.359Z,17.42
2023-01-22T11:46:32.477Z,15.68
2023-01-22T11:49:27.035Z,15.38
2023-01-22T11:52:17.884Z,19.35
2023-01-22T11:55:18.519Z,16.88
2023-01-22T11:58:17.580Z,16.42
2023-01-22T12:01:00.016Z,18.20
2023-01-22T12:03:58.786Z,18.42
2023-01-22T12:06:50.400Z,18.85
2023-01-22T12:09:37.364Z,17.52
2023-01-22T12:12:51.574Z,20.73
2023-01-22T12:15:57.049Z,17.20
2023-01-22T12:18:39.387Z,21.60
2023-01-22T12:21:51.200Z,22.10
2023-01-22T12:24:53.027Z,24.35
2023-01-22T12:27:42.621Z,21.63
2023-01-22T12:30:36.074Z,19.02
2023-01-22T12:33:24.042Z,23.38
2023-01-22T12:36:01.639Z,20.42
2023-01-22T12:38:47.220Z,19.23
2023-01-22T12:42:06.828Z,17.27
2023-01-22T12:44:51.865Z,17.10
2023-01-22T12:47:34.994Z,15.43
2023-01-22T12:50:22.375Z,16.52
2023-01-22T12:53:06.302Z,18.88
2023-01-22T12:55:44.336Z,19.27
2023-01-22T12:58:39.613Z,18.73
2023-01-22T13:01:14.512Z,19.70
2023-01-22T13:04:08.461Z,19.08
2023-01-22T13:06:47.013Z,18.35
2023-01-22T13:09:39.746Z,17.05
2023-01-22T13:12:45.494Z,19.05
2023-01-22T13:15:28.981Z,19.27
2023-01-22T13:18:23.648Z,20.85
2023-01-22T13:21:16.915Z,21.73
2023-01-22T13:24:02.300Z,22.30
2023-01-22T13:26:41.594Z,21.98
2023-01-22T13:29:28.774Z,24.15
2023-01-22T13:32:06.474Z,22.23
2023-01-22T13:34:41.666Z,22.40
2023-01-22T13:37:52.323Z,22.05
2023-01-22T13:40:50.690Z,21.90
2023-01-22T13:43:27.742Z,22.02
2023-01-22T13:46:06.287Z,22.63
2023-01-22T13:48:45.429Z,22.35
2023-01-22T13:51:32.693Z,24.13
2023-01-22T13:54:28.476Z,22.73
2023-01-22T13:57:15.250Z,22.42
2023-01-22T14:00:15.986Z,25.52
2023-01-22T14:02:51.816Z,25.88
2023-01-22T14:05:32.232Z,23.90
2023-01-22T14:08:39.506Z,25.73
2023-01-22T14:11:12.366Z,24.67
2023-01-22T14:13:52.082Z,22.35
2023-01-22T14:16:33.040Z,23.52
2023-01-22T14:19:13.882Z,23.05
2023-01-22T14:21:53.824Z,22.10
2023-01-22T14:24:36.704Z,23.13
2023-01-22T14:27:41.900Z,23.02
2023-01-22T14:30:19.842Z,24.98
2023-01-22T14:32:56.018Z,27.92
2023-01-22T14:35:33.097Z,27.65
2023-01-22T14:38:10.622Z,25.83
2023-01-22T14:40:51.798Z,26.15
2023-01-22T14:43:34.755Z,26.42
2023-01-22T14:46:21.283Z,26.10
2023-01-22T14:49:02.064Z,27.52
2023-01-22T14:51:42.943Z,26.92
2023-01-22T14:54:18.591Z,26.98
2023-01-22T14:57:06.970Z,28.63
2023-01-22T14:59:46.770Z,27.75
2023-01-22T15:02:27.436Z,28.40
2023-01-22T15:05:05.030Z,29.50
2023-01-22T15:07:46.416Z,29.73
2023-01-22T15:10:27.950Z,33.50
2023-01-22T15:13:08.397Z,32.25
2023-01-22T15:15:52.452Z,35.35
2023-01-22T15:18:30.064Z,29.80
2023-01-22T15:21:08.128Z,32.42
2023-01-22T15:23:51.904Z,35.60
2023-01-22T15:26:39.632Z,35.85
2023-01-22T15:29:20.092Z,41.60
2023-01-22T15:31:58.138Z,36.88
2023-01-22T15:34:37.137Z,37.10
2023-01-22T15:37:18.688Z,36.97
2023-01-22T15:40:09.757Z,34.75
2023-01-22T15:42:49.425Z,36.35
2023-01-22T15:45:33.444Z,37.58
2023-01-22T15:48:11.971Z,34.20
2023-01-22T15:50:52.908Z,34.35
2023-01-22T15:53:39.182Z,31.45
2023-01-22T15:56:12.549Z,33.28
2023-01-22T15:58:51.431Z,33.40
2023-01-22T16:01:32.804Z,31.65
2023-01-22T16:04:18.435Z,28.90
2023-01-22T16:06:55.329Z,29.92
2023-01-22T16:09:32.868Z,35.20
2023-01-22T16:12:16.092Z,29.77
2023-01-22T16:14:53.777Z,32.42
2023-01-22T16:17:32.016Z,33.38
2023-01-22T16:20:10.055Z,32.88
2023-01-22T16:22:51.892Z,36.47
2023-01-22T16:25:25.519Z,38.90
2023-01-22T16:30:51.323Z,40.20
2023-01-22T16:33:45.808Z,41.65
2023-01-22T16:36:37.419Z,42.28
2023-01-22T16:39:10.358Z,40.40
2023-01-22T16:41:57.184Z,39.63
2023-01-22T16:44:33.326Z,40.72
2023-01-22T16:47:13.990Z,45.00
2023-01-22T16:49:56.974Z,49.00
2023-01-22T16:52:33.235Z,63.07
2023-01-22T16:55:18.145Z,49.80
2023-01-22T16:57:54.232Z,47.58
2023-01-22T17:00:35.313Z,47.47
2023-01-22T17:03:06.437Z,41.47
2023-01-22T17:05:43.207Z,40.20
2023-01-22T17:08:16.448Z,41.35
2023-01-22T17:10:55.592Z,43.78
2023-01-22T17:13:31.397Z,40.85
2023-01-22T17:16:10.078Z,43.45
2023-01-22T17:18:48.415Z,37.58
2023-01-22T17:21:17.988Z,34.38
2023-01-22T17:23:54.658Z,33.15
2023-01-22T17:26:35.246Z,36.67
2023-01-22T17:29:13.591Z,30.63
2023-01-22T17:31:57.543Z,32.05
2023-01-22T17:34:37.526Z,32.42
2023-01-22T17:37:15.601Z,32.60
2023-01-22T17:40:01.441Z,32.60
2023-01-22T17:42:44.520Z,31.60
2023-01-22T17:45:22.843Z,32.88
2023-01-22T17:48:03.604Z,28.85
2023-01-22T17:50:38.290Z,30.70
2023-01-22T17:53:22.963Z,30.20
2023-01-22T17:56:09.543Z,30.50
2023-01-22T17:58:51.532Z,31.30
2023-01-22T18:01:49.131Z,29.00
2023-01-22T18:04:32.941Z,31.30
2023-01-22T18:07:16.723Z,27.77
2023-01-22T18:09:58.003Z,29.42
2023-01-22T18:12:30.963Z,29.42
2023-01-22T18:15:10.728Z,28.80
2023-01-22T18:17:49.456Z,31.08
2023-01-22T18:20:33.247Z,30.33
2023-01-22T18:23:20.810Z,29.80
2023-01-22T18:26:06.113Z,28.77
2023-01-22T18:28:42.628Z,29.92
2023-01-22T18:31:17.843Z,29.58
2023-01-22T18:33:54.351Z,30.77
2023-01-22T18:36:29.573Z,30.50
2023-01-22T18:39:18.886Z,30.10
2023-01-22T18:41:59.423Z,30.63
2023-01-22T18:44:32.148Z,39.40
2023-01-22T18:47:18.008Z,34.63
2023-01-22T18:49:52.698Z,34.58
2023-01-22T18:52:37.166Z,33.50
2023-01-22T18:55:12.469Z,33.40
2023-01-22T18:58:21.643Z,31.48
2023-01-22T19:00:53.935Z,33.20
2023-01-22T19:03:34.602Z,30.38
2023-01-22T19:06:16.298Z,30.38
2023-01-22T19:09:02.923Z,30.50
2023-01-22T19:11:47.217Z,35.22
2023-01-22T19:14:27.279Z,34.28
2023-01-22T19:17:08.228Z,35.58
2023-01-22T19:19:46.372Z,31.27
2023-01-22T19:22:24.535Z,38.17
2023-01-22T19:25:05.193Z,40.53
2023-01-22T19:27:46.021Z,45.30
2023-01-22T19:30:26.669Z,42.47
2023-01-22T19:33:04.716Z,46.67
2023-01-22T19:35:50.678Z,45.50
2023-01-22T19:38:25.249Z,48.20
2023-01-22T19:41:09.229Z,47.40
2023-01-22T19:43:49.673Z,44.78
2023-01-22T19:46:33.206Z,40.03
2023-01-22T19:49:15.230Z,39.25
2023-01-22T19:51:58.609Z,37.13
2023-01-22T19:54:34.059Z,34.20
2023-01-22T19:57:12.467Z,32.70
2023-01-22T20:00:00.179Z,32.53
2023-01-22T20:02:33.074Z,41.50
2023-01-22T20:05:06.146Z,38.33
2023-01-22T20:07:48.951Z,41.45
2023-01-22T20:10:26.987Z,46.35
2023-01-22T20:13:05.554Z,41.53
2023-01-22T20:15:47.810Z,36.22
2023-01-22T20:18:28.837Z,35.53
2023-01-22T20:21:04.348Z,34.03
2023-01-22T20:23:46.373Z,34.92
2023-01-22T20:26:27.712Z,36.92
2023-01-22T20:29:02.253Z,43.60
2023-01-22T20:31:38.260Z,45.33
2023-01-22T20:34:18.107Z,47.40
2023-01-22T20:36:53.136Z,41.35
2023-01-22T20:39:38.826Z,44.63
2023-01-22T20:42:11.724Z,39.58
2023-01-22T20:44:52.647Z,44.00
2023-01-22T20:47:36.596Z,40.75
2023-01-22T20:50:26.049Z,37.35
2023-01-22T20:53:10.382Z,41.60
2023-01-22T20:55:59.357Z,42.60
2023-01-22T20:58:33.040Z,42.22
2023-01-22T21:01:18.834Z,42.03
2023-01-22T21:03:54.428Z,55.45
2023-01-22T21:06:34.139Z,44.78
2023-01-22T21:09:15.965Z,40.65
2023-01-22T21:11:56.619Z,42.08
2023-01-22T21:14:37.196Z,42.22
2023-01-22T21:17:18.917Z,43.20
2023-01-22T21:19:58.293Z,42.00
2023-01-22T21:22:35.313Z,41.10
2023-01-22T21:25:18.829Z,42.20
2023-01-22T21:27:56.849Z,42.55
2023-01-22T21:30:35.703Z,38.92
2023-01-22T21:33:21.065Z,38.63
2023-01-22T21:36:05.132Z,37.25
2023-01-22T21:38:52.869Z,43.53
2023-01-22T21:41:33.876Z,45.90
2023-01-22T21:44:23.080Z,66.82
2023-01-22T21:46:55.435Z,56.65
2023-01-22T21:49:39.015Z,67.93
2023-01-22T21:52:20.261Z,62.80
2023-01-22T21:55:01.166Z,58.33
2023-01-22T21:57:41.924Z,60.03
2023-01-22T22:00:28.635Z,64.85
2023-01-22T22:05:44.652Z,70.43
2023-01-22T22:08:22.401Z,60.47
2023-01-22T22:11:03.843Z,55.22
2023-01-22T22:13:46.906Z,57.88
2023-01-22T22:16:33.558Z,58.53
2023-01-22T22:21:47.290Z,52.42
2023-01-22T22:24:32.187Z,46.55
2023-01-22T22:27:18.589Z,55.42
2023-01-22T22:29:54.816Z,52.72
2023-01-22T22:32:30.566Z,62.35
2023-01-22T22:35:20.142Z,56.25
2023-01-22T22:37:58.806Z,62.33
2023-01-22T22:40:39.600Z,53.42
2023-01-22T22:43:26.220Z,57.33
2023-01-22T22:46:26.438Z,52.72
2023-01-22T22:49:00.833Z,49.05
2023-01-22T22:51:41.047Z,50.47
2023-01-22T22:54:23.382Z,52.90
2023-01-22T22:57:05.895Z,51.35
2023-01-22T22:59:47.022Z,46.83
2023-01-22T23:02:29.405Z,46.42
2023-01-22T23:05:06.960Z,51.53
2023-01-22T23:07:50.559Z,44.55
2023-01-22T23:10:34.132Z,44.92
2023-01-22T23:13:13.121Z,44.47
2023-01-22T23:16:01.575Z,40.83
2023-01-22T23:18:38.693Z,46.35
2023-01-22T23:21:20.437Z,46.97
2023-01-22T23:24:06.667Z,44.58
2023-01-22T23:26:42.698Z,43.25
2023-01-22T23:29:29.565Z,41.55
2023-01-22T23:32:12.623Z,40.58
2023-01-22T23:34:45.329Z,37.17
2023-01-22T23:37:33.918Z,26.85
2023-01-22T23:40:10.718Z,34.72
2023-01-22T23:43:00.525Z,38.28
2023-01-22T23:45:44.830Z,39.65
2023-01-22T23:48:17.620Z,42.05
2023-01-22T23:51:02.783Z,42.53
2023-01-22T23:53:51.957Z,44.97
2023-01-22T23:56:33.213Z,47.95
2023-01-22T23:59:11.783Z,45.05
